createdAt,value
2022-07-25T00:00:39.565Z,21.94
2022-07-25T00:03:14.229Z,21.90
2022-07-25T00:05:48.998Z,21.87
2022-07-25T00:08:22.107Z,21.82
2022-07-25T00:10:55.338Z,21.77
2022-07-25T00:13:28.374Z,21.71
2022-07-25T00:16:04.396Z,21.67
2022-07-25T00:18:37.552Z,21.61
2022-07-25T00:21:10.556Z,21.59
2022-07-25T00:23:44.026Z,21.57
2022-07-25T00:26:17.564Z,21.50
2022-07-25T00:28:50.623Z,21.42
2022-07-25T00:31:23.615Z,21.33
2022-07-25T00:33:57.983Z,21.26
2022-07-25T00:36:31.266Z,21.21
2022-07-25T00:39:06.985Z,21.14
2022-07-25T00:41:39.976Z,21.10
2022-07-25T00:44:14.344Z,21.06
2022-07-25T00:46:47.486Z,21.02
2022-07-25T00:49:20.741Z,20.96
2022-07-25T00:51:55.025Z,20.91
2022-07-25T00:54:28.244Z,20.88
2022-07-25T00:57:04.127Z,20.85
2022-07-25T00:59:37.652Z,20.83
2022-07-25T01:02:10.984Z,20.79
2022-07-25T01:04:47.439Z,20.77
2022-07-25T01:07:20.868Z,20.72
2022-07-25T01:09:54.278Z,20.62
2022-07-25T01:12:27.735Z,20.48
2022-07-25T01:15:00.941Z,20.40
2022-07-25T01:17:35.698Z,20.34
2022-07-25T01:20:28.484Z,20.33
2022-07-25T01:23:02.337Z,20.29
2022-07-25T01:25:35.439Z,20.25
2022-07-25T01:28:09.016Z,20.24
2022-07-25T01:30:42.257Z,20.26
2022-07-25T01:33:19.193Z,20.27
2022-07-25T01:35:52.721Z,20.27
2022-07-25T01:38:25.888Z,20.27
2022-07-25T01:40:59.002Z,20.26
2022-07-25T01:43:33.039Z,20.23
2022-07-25T01:46:07.234Z,20.17
2022-07-25T01:48:41.536Z,20.08
2022-07-25T01:51:15.263Z,20.00
2022-07-25T01:53:50.091Z,19.95
2022-07-25T01:56:23.081Z,19.91
2022-07-25T01:58:58.058Z,19.85
2022-07-25T02:01:31.478Z,19.78
2022-07-25T02:04:05.326Z,19.76
2022-07-25T02:06:41.635Z,19.71
2022-07-25T02:09:14.599Z,19.68
2022-07-25T02:11:47.562Z,19.63
2022-07-25T02:14:20.778Z,19.65
2022-07-25T02:16:54.145Z,19.68
2022-07-25T02:19:27.402Z,19.70
2022-07-25T02:22:03.521Z,19.70
2022-07-25T02:24:37.266Z,19.72
2022-07-25T02:27:10.773Z,19.75
2022-07-25T02:29:43.784Z,19.78
2022-07-25T02:32:16.846Z,19.83
2022-07-25T02:34:49.828Z,19.87
2022-07-25T02:37:24.467Z,19.92
2022-07-25T02:39:57.415Z,19.92
2022-07-25T02:42:30.417Z,19.90
2022-07-25T02:45:03.389Z,19.88
2022-07-25T02:47:36.446Z,19.90
2022-07-25T02:50:14.716Z,19.90
2022-07-25T02:52:46.486Z,19.92
2022-07-25T02:55:19.477Z,19.97
2022-07-25T02:57:52.442Z,20.02
2022-07-25T03:00:26.019Z,20.05
2022-07-25T03:03:01.033Z,20.07
2022-07-25T03:05:34.505Z,20.10
2022-07-25T03:08:09.850Z,20.13
2022-07-25T03:10:43.099Z,20.18
2022-07-25T03:13:16.151Z,20.19
2022-07-25T03:15:49.640Z,20.24
2022-07-25T03:18:23.844Z,20.27
2022-07-25T03:20:58.501Z,20.31
2022-07-25T03:23:31.783Z,20.37
2022-07-25T03:26:05.208Z,20.48
2022-07-25T03:28:38.658Z,20.56
2022-07-25T03:31:11.909Z,20.66
2022-07-25T03:33:44.944Z,20.72
2022-07-25T03:36:19.415Z,20.74
2022-07-25T03:38:52.427Z,20.84
2022-07-25T03:41:27.802Z,20.93
2022-07-25T03:44:00.626Z,21.00
2022-07-25T03:46:33.953Z,20.98
2022-07-25T03:49:07.773Z,20.93
2022-07-25T03:51:43.940Z,20.92
2022-07-25T03:54:16.937Z,20.96
2022-07-25T03:56:52.344Z,21.06
2022-07-25T03:59:25.425Z,21.16
2022-07-25T04:01:59.696Z,21.23
2022-07-25T04:04:32.801Z,21.27
2022-07-25T04:07:06.030Z,21.27
2022-07-25T04:09:39.081Z,21.33
2022-07-25T04:12:12.203Z,21.34
2022-07-25T04:14:45.836Z,21.39
2022-07-25T04:17:19.938Z,21.44
2022-07-25T04:19:54.274Z,21.51
2022-07-25T04:22:29.206Z,21.60
2022-07-25T04:25:02.830Z,21.59
2022-07-25T04:27:35.944Z,21.66
2022-07-25T04:30:11.932Z,21.77
2022-07-25T04:32:45.269Z,21.87
2022-07-25T04:35:18.572Z,22.02
2022-07-25T04:37:51.633Z,22.10
2022-07-25T04:40:24.712Z,22.20
2022-07-25T04:43:00.604Z,22.31
2022-07-25T04:45:34.883Z,22.39
2022-07-25T04:48:09.688Z,22.49
2022-07-25T04:50:42.728Z,22.58
2022-07-25T04:53:15.938Z,22.62
2022-07-25T04:55:49.483Z,22.70
2022-07-25T04:58:25.499Z,22.79
2022-07-25T05:00:58.832Z,22.89
2022-07-25T05:03:31.953Z,22.96
2022-07-25T05:06:05.416Z,22.94
2022-07-25T05:08:38.488Z,23.06
2022-07-25T05:11:11.492Z,23.23
2022-07-25T05:13:44.761Z,23.35
2022-07-25T05:16:17.840Z,23.46
2022-07-25T05:18:50.964Z,23.46
2022-07-25T05:21:24.413Z,23.40
2022-07-25T05:23:57.604Z,23.31
2022-07-25T05:26:31.052Z,23.27
2022-07-25T05:29:04.153Z,23.37
2022-07-25T05:31:38.516Z,23.49
2022-07-25T05:34:12.587Z,23.43
2022-07-25T05:36:47.396Z,23.38
2022-07-25T05:39:21.658Z,23.38
2022-07-25T05:41:54.691Z,23.41
2022-07-25T05:44:29.079Z,23.40
2022-07-25T05:47:02.588Z,23.42
2022-07-25T05:49:35.701Z,23.45
2022-07-25T05:52:12.917Z,23.51
2022-07-25T05:54:44.373Z,23.75
2022-07-25T05:57:17.483Z,23.99
2022-07-25T05:59:50.729Z,24.25
2022-07-25T06:02:23.939Z,24.59
2022-07-25T06:04:57.237Z,24.86
2022-07-25T06:07:30.297Z,24.96
2022-07-25T06:10:03.484Z,25.18
2022-07-25T06:12:36.967Z,25.46
2022-07-25T06:15:17.663Z,25.64
2022-07-25T06:17:46.667Z,25.61
2022-07-25T06:20:20.223Z,25.63
2022-07-25T06:22:53.448Z,25.79
2022-07-25T06:25:26.919Z,25.87
2022-07-25T06:28:01.136Z,25.78
2022-07-25T06:30:34.548Z,25.78
2022-07-25T06:33:07.757Z,25.92
2022-07-25T06:35:40.795Z,26.09
2022-07-25T06:38:13.953Z,26.18
2022-07-25T06:40:47.322Z,26.36
2022-07-25T06:43:20.319Z,26.38
2022-07-25T06:45:56.459Z,26.41
2022-07-25T06:48:30.677Z,26.50
2022-07-25T06:51:04.937Z,26.65
2022-07-25T06:53:39.742Z,26.96
2022-07-25T06:56:17.473Z,27.32
2022-07-25T06:58:47.430Z,27.59
2022-07-25T07:01:20.856Z,27.94
2022-07-25T07:03:54.229Z,28.55
2022-07-25T07:06:27.303Z,29.21
2022-07-25T07:09:00.380Z,30.44
2022-07-25T07:11:34.440Z,32.10
2022-07-25T07:14:08.027Z,33.50
2022-07-25T07:16:42.577Z,34.16
2022-07-25T07:19:15.977Z,32.68
2022-07-25T07:21:51.548Z,31.86
2022-07-25T07:24:24.845Z,31.76
2022-07-25T07:26:57.827Z,31.49
2022-07-25T07:29:32.193Z,30.66
2022-07-25T07:32:06.641Z,30.15
2022-07-25T07:34:40.352Z,29.95
2022-07-25T07:37:13.290Z,29.76
2022-07-25T07:39:46.303Z,29.42
2022-07-25T07:42:19.341Z,29.64
2022-07-25T07:44:52.692Z,29.92
2022-07-25T07:47:25.804Z,30.62
2022-07-25T07:49:58.764Z,30.75
2022-07-25T07:52:32.036Z,30.51
2022-07-25T07:55:22.903Z,30.30
2022-07-25T07:58:00.419Z,30.30
2022-07-25T08:00:38.957Z,30.25
2022-07-25T08:03:12.282Z,30.26
2022-07-25T08:05:46.663Z,30.28
2022-07-25T08:08:19.789Z,30.40
2022-07-25T08:10:58.374Z,30.37
2022-07-25T08:13:30.837Z,30.12
2022-07-25T08:16:05.375Z,30.40
2022-07-25T08:18:38.818Z,32.23
2022-07-25T08:21:12.187Z,34.86
2022-07-25T08:23:48.369Z,35.91
2022-07-25T08:26:21.635Z,35.45
2022-07-25T08:29:17.137Z,33.83
2022-07-25T08:31:30.601Z,32.55
2022-07-25T08:34:05.611Z,31.80
2022-07-25T08:36:39.436Z,31.11
2022-07-25T08:39:12.482Z,30.96
2022-07-25T08:41:46.025Z,31.10
2022-07-25T08:44:21.469Z,32.71
2022-07-25T08:46:55.677Z,33.29
2022-07-25T08:49:30.000Z,32.48
2022-07-25T08:52:04.656Z,31.51
2022-07-25T08:54:38.313Z,30.42
2022-07-25T08:57:12.151Z,29.76
2022-07-25T08:59:46.151Z,29.81
2022-07-25T09:02:19.287Z,30.89
2022-07-25T09:04:53.618Z,31.30
2022-07-25T09:07:34.542Z,31.79
2022-07-25T09:10:27.901Z,31.30
2022-07-25T09:13:02.787Z,31.30
2022-07-25T09:15:37.301Z,31.22
2022-07-25T09:18:13.434Z,30.58
2022-07-25T09:20:49.920Z,29.77
2022-07-25T09:23:32.278Z,28.88
2022-07-25T09:26:07.466Z,28.38
2022-07-25T09:28:44.786Z,29.93
2022-07-25T09:31:21.676Z,31.86
2022-07-25T09:33:57.065Z,31.82
2022-07-25T09:36:30.100Z,31.45
2022-07-25T09:39:05.861Z,32.54
2022-07-25T09:41:42.835Z,33.22
2022-07-25T09:44:23.155Z,33.83
2022-07-25T09:46:56.699Z,33.06
2022-07-25T09:49:40.043Z,32.12
2022-07-25T09:52:14.345Z,31.81
2022-07-25T09:54:47.821Z,33.16
2022-07-25T09:57:21.152Z,33.01
2022-07-25T09:59:56.150Z,33.22
2022-07-25T10:02:36.083Z,34.61
2022-07-25T10:05:16.910Z,34.66
2022-07-25T10:07:52.673Z,34.62
2022-07-25T10:10:28.783Z,33.50
2022-07-25T10:13:09.500Z,33.30
2022-07-25T10:15:45.473Z,34.70
2022-07-25T10:18:20.210Z,36.21
2022-07-25T10:20:55.545Z,36.97
2022-07-25T10:23:29.912Z,35.82
2022-07-25T10:26:06.107Z,35.13
2022-07-25T10:28:44.906Z,36.21
2022-07-25T10:31:21.412Z,37.49
2022-07-25T10:33:57.354Z,38.25
2022-07-25T10:36:34.450Z,38.16
2022-07-25T10:39:10.092Z,37.86
2022-07-25T10:41:44.900Z,38.28
2022-07-25T10:44:18.659Z,38.61
2022-07-25T10:46:52.117Z,38.70
2022-07-25T10:49:31.787Z,38.59
2022-07-25T10:52:03.436Z,39.83
2022-07-25T10:54:38.056Z,40.61
2022-07-25T10:57:17.389Z,40.61
2022-07-25T10:59:50.848Z,38.88
2022-07-25T11:02:25.846Z,36.75
2022-07-25T11:05:05.277Z,35.23
2022-07-25T11:07:38.599Z,35.06
2022-07-25T11:10:12.516Z,35.79
2022-07-25T11:12:49.263Z,36.33
2022-07-25T11:15:25.570Z,37.18
2022-07-25T11:17:58.665Z,38.04
2022-07-25T11:20:32.379Z,38.44
2022-07-25T11:23:05.572Z,38.36
2022-07-25T11:25:38.761Z,38.81
2022-07-25T11:28:12.579Z,39.62
2022-07-25T11:30:45.777Z,41.01
2022-07-25T11:33:19.060Z,41.91
2022-07-25T11:35:52.439Z,42.17
2022-07-25T11:38:25.789Z,41.84
2022-07-25T11:40:59.646Z,39.72
2022-07-25T11:43:33.211Z,37.64
2022-07-25T11:46:08.578Z,36.02
2022-07-25T11:48:43.118Z,34.91
2022-07-25T11:51:19.571Z,33.84
2022-07-25T11:53:53.762Z,33.11
2022-07-25T11:56:42.413Z,32.53
2022-07-25T11:59:02.371Z,32.16
2022-07-25T12:01:41.799Z,33.55
2022-07-25T12:04:17.120Z,34.12
2022-07-25T12:06:51.417Z,35.01
2022-07-25T12:09:24.902Z,35.83
2022-07-25T12:12:05.063Z,35.60
2022-07-25T12:14:46.987Z,36.04
2022-07-25T12:17:20.351Z,36.69
2022-07-25T12:19:53.584Z,38.20
2022-07-25T12:22:26.879Z,38.47
2022-07-25T12:25:00.150Z,38.63
2022-07-25T12:27:34.441Z,39.31
2022-07-25T12:30:10.019Z,39.54
2022-07-25T12:32:43.582Z,39.46
2022-07-25T12:35:17.144Z,39.13
2022-07-25T12:37:52.024Z,38.36
2022-07-25T12:40:25.495Z,37.95
2022-07-25T12:42:59.546Z,37.83
2022-07-25T12:45:32.952Z,38.89
2022-07-25T12:48:06.780Z,39.27
2022-07-25T12:50:40.503Z,39.48
2022-07-25T12:53:14.434Z,39.72
2022-07-25T12:55:47.696Z,39.81
2022-07-25T12:58:21.565Z,39.57
2022-07-25T13:00:58.161Z,39.61
2022-07-25T13:03:29.668Z,39.80
2022-07-25T13:06:03.134Z,40.02
2022-07-25T13:08:37.881Z,40.31
2022-07-25T13:11:12.874Z,39.47
2022-07-25T13:13:46.189Z,38.76
2022-07-25T13:16:19.659Z,38.86
2022-07-25T13:18:52.921Z,39.06
2022-07-25T13:21:26.500Z,39.42
2022-07-25T13:23:59.625Z,39.41
2022-07-25T13:26:34.485Z,38.55
2022-07-25T13:29:09.602Z,36.83
2022-07-25T13:31:44.705Z,35.21
2022-07-25T13:34:18.588Z,33.94
2022-07-25T13:36:51.934Z,33.13
2022-07-25T13:39:25.520Z,33.25
2022-07-25T13:41:58.816Z,32.90
2022-07-25T13:44:32.269Z,32.43
2022-07-25T13:47:06.061Z,31.97
2022-07-25T13:49:39.412Z,32.07
2022-07-25T13:52:12.566Z,31.99
2022-07-25T13:54:47.440Z,31.54
2022-07-25T13:57:20.904Z,31.07
2022-07-25T13:59:54.350Z,30.90
2022-07-25T14:02:27.771Z,31.04
2022-07-25T14:05:04.253Z,31.05
2022-07-25T14:07:37.417Z,31.55
2022-07-25T14:10:12.658Z,33.08
2022-07-25T14:12:47.373Z,33.26
2022-07-25T14:15:21.992Z,32.71
2022-07-25T14:17:54.952Z,32.99
2022-07-25T14:20:29.923Z,33.38
2022-07-25T14:23:03.237Z,33.36
2022-07-25T14:25:36.779Z,33.87
2022-07-25T14:28:10.561Z,33.46
2022-07-25T14:30:44.037Z,32.95
2022-07-25T14:33:17.377Z,32.80
2022-07-25T14:35:50.675Z,33.17
2022-07-25T14:38:24.018Z,33.63
2022-07-25T14:40:58.092Z,33.72
2022-07-25T14:43:31.434Z,33.71
2022-07-25T14:46:05.316Z,34.06
2022-07-25T14:48:39.625Z,34.50
2022-07-25T14:51:13.292Z,34.98
2022-07-25T14:53:50.068Z,35.33
2022-07-25T14:56:21.488Z,35.15
2022-07-25T14:58:54.503Z,34.82
2022-07-25T15:01:27.940Z,34.29
2022-07-25T15:04:01.397Z,33.92
2022-07-25T15:06:34.961Z,33.73
2022-07-25T15:09:08.902Z,33.45
2022-07-25T15:11:42.526Z,33.54
2022-07-25T15:14:15.799Z,33.78
2022-07-25T15:16:49.078Z,33.38
2022-07-25T15:19:22.506Z,33.14
2022-07-25T15:21:55.901Z,33.17
2022-07-25T15:24:29.478Z,33.23
2022-07-25T15:27:02.898Z,33.38
2022-07-25T15:29:36.245Z,33.58
2022-07-25T15:32:10.177Z,33.96
2022-07-25T15:34:43.482Z,33.75
2022-07-25T15:37:16.480Z,33.29
2022-07-25T15:39:49.876Z,32.84
2022-07-25T15:42:27.167Z,32.72
2022-07-25T15:45:31.405Z,32.87
2022-07-25T15:47:35.030Z,32.54
2022-07-25T15:50:09.563Z,32.11
2022-07-25T15:52:42.721Z,31.76
2022-07-25T15:55:16.335Z,31.54
2022-07-25T15:57:49.466Z,31.54
2022-07-25T16:00:26.110Z,31.72
2022-07-25T16:02:58.287Z,31.98
2022-07-25T16:05:31.791Z,32.12
2022-07-25T16:08:05.531Z,31.93
2022-07-25T16:10:39.098Z,31.67
2022-07-25T16:13:12.249Z,31.77
2022-07-25T16:15:45.878Z,31.85
2022-07-25T16:18:19.245Z,31.96
2022-07-25T16:20:52.606Z,31.88
2022-07-25T16:23:27.620Z,31.80
2022-07-25T16:26:01.109Z,31.80
2022-07-25T16:28:33.988Z,31.81
2022-07-25T16:31:08.109Z,31.68
2022-07-25T16:33:41.407Z,31.52
2022-07-25T16:36:14.709Z,31.31
2022-07-25T16:38:49.251Z,31.14
2022-07-25T16:41:22.757Z,31.02
2022-07-25T16:43:56.167Z,30.96
2022-07-25T16:46:29.487Z,30.88
2022-07-25T16:49:02.768Z,30.83
2022-07-25T16:51:37.259Z,30.72
2022-07-25T16:54:11.721Z,30.55
2022-07-25T16:56:45.176Z,30.43
2022-07-25T16:59:18.291Z,30.37
2022-07-25T17:01:51.714Z,30.16
2022-07-25T17:04:25.003Z,29.99
2022-07-25T17:06:58.498Z,29.71
2022-07-25T17:09:32.153Z,29.30
2022-07-25T17:12:06.234Z,28.68
2022-07-25T17:14:42.601Z,27.85
2022-07-25T17:17:15.742Z,27.09
2022-07-25T17:19:49.059Z,26.26
2022-07-25T17:22:22.080Z,25.47
2022-07-25T17:24:55.017Z,24.76
2022-07-25T17:27:28.175Z,24.19
2022-07-25T17:30:01.493Z,23.89
2022-07-25T17:32:34.562Z,23.68
2022-07-25T17:35:08.842Z,23.50
2022-07-25T17:37:43.252Z,23.58
2022-07-25T17:40:16.433Z,23.66
2022-07-25T17:42:49.424Z,23.71
2022-07-25T17:45:22.644Z,23.74
2022-07-25T17:47:55.865Z,23.74
2022-07-25T17:50:29.683Z,23.73
2022-07-25T17:53:03.309Z,23.78
2022-07-25T17:55:39.119Z,23.90
2022-07-25T17:58:12.889Z,24.08
2022-07-25T18:00:45.802Z,24.25
2022-07-25T18:03:24.930Z,24.33
2022-07-25T18:05:58.036Z,24.30
2022-07-25T18:08:33.115Z,24.22
2022-07-25T18:11:06.694Z,24.11
2022-07-25T18:13:43.867Z,24.04
2022-07-25T18:16:17.563Z,24.00
2022-07-25T18:18:54.846Z,23.99
2022-07-25T18:21:29.212Z,23.96
2022-07-25T18:24:12.008Z,23.95
2022-07-25T18:26:46.197Z,23.92
2022-07-25T18:29:20.333Z,23.86
2022-07-25T18:31:54.041Z,23.86
2022-07-25T18:34:27.157Z,23.90
2022-07-25T18:37:00.562Z,23.92
2022-07-25T18:39:33.751Z,23.92
2022-07-25T18:42:07.566Z,23.80
2022-07-25T18:44:40.525Z,23.65
2022-07-25T18:47:14.117Z,23.62
2022-07-25T18:49:49.088Z,23.65
2022-07-25T18:55:20.811Z,23.63
2022-07-25T18:57:54.320Z,23.54
2022-07-25T19:00:28.014Z,23.40
2022-07-25T19:03:01.415Z,23.29
2022-07-25T19:05:34.580Z,23.17
2022-07-25T19:08:09.169Z,23.16
2022-07-25T19:10:42.223Z,23.25
2022-07-25T19:13:39.206Z,23.32
2022-07-25T19:15:50.469Z,23.36
2022-07-25T19:18:29.170Z,23.41
2022-07-25T19:20:58.646Z,23.45
2022-07-25T19:23:32.040Z,23.48
2022-07-25T19:26:08.385Z,23.50
2022-07-25T19:28:41.478Z,23.49
2022-07-25T19:31:14.764Z,23.43
2022-07-25T19:33:50.896Z,23.34
2022-07-25T19:36:24.008Z,23.30
2022-07-25T19:38:56.995Z,23.42
2022-07-25T19:41:31.736Z,23.57
2022-07-25T19:44:05.256Z,23.65
2022-07-25T19:46:38.656Z,23.54
2022-07-25T19:49:11.920Z,23.53
2022-07-25T19:51:45.052Z,23.58
2022-07-25T19:54:19.741Z,23.60
2022-07-25T19:56:53.568Z,23.58
2022-07-25T19:59:26.988Z,23.50
2022-07-25T20:02:01.037Z,23.43
2022-07-25T20:04:34.176Z,23.25
2022-07-25T20:07:07.772Z,23.13
2022-07-25T20:09:41.205Z,23.13
2022-07-25T20:12:17.311Z,23.12
2022-07-25T20:14:50.619Z,23.05
2022-07-25T20:17:23.903Z,23.04
2022-07-25T20:19:56.915Z,22.98
2022-07-25T20:22:31.568Z,22.97
2022-07-25T20:25:06.161Z,22.96
2022-07-25T20:27:42.871Z,22.91
2022-07-25T20:30:21.789Z,23.02
2022-07-25T20:32:58.138Z,23.14
2022-07-25T20:35:34.563Z,23.20
2022-07-25T20:38:09.301Z,23.28
2022-07-25T20:40:49.238Z,23.33
2022-07-25T20:43:19.256Z,23.33
2022-07-25T20:45:52.469Z,23.36
2022-07-25T20:48:26.144Z,23.30
2022-07-25T20:50:59.427Z,23.29
2022-07-25T20:53:32.537Z,23.35
2022-07-25T20:56:05.900Z,23.34
2022-07-25T20:58:39.205Z,23.40
2022-07-25T21:01:12.750Z,23.47
2022-07-25T21:03:46.058Z,23.48
2022-07-25T21:06:19.294Z,23.45
2022-07-25T21:08:52.795Z,23.43
2022-07-25T21:11:26.176Z,23.43
2022-07-25T21:13:59.801Z,23.48
2022-07-25T21:16:34.632Z,23.52
2022-07-25T21:19:08.552Z,23.52
2022-07-25T21:24:49.433Z,23.59
2022-07-25T21:27:26.123Z,23.47
2022-07-25T21:29:59.647Z,23.48
2022-07-25T21:32:34.841Z,23.40
2022-07-25T21:38:26.047Z,23.37
2022-07-25T21:40:54.191Z,23.22
2022-07-25T21:43:27.680Z,23.15
2022-07-25T21:46:00.799Z,23.06
2022-07-25T21:48:51.070Z,23.03
2022-07-25T21:51:26.080Z,22.99
2022-07-25T21:54:00.885Z,22.97
2022-07-25T21:56:57.731Z,22.97
2022-07-25T21:59:36.802Z,22.94
2022-07-25T22:05:45.911Z,22.97
2022-07-25T22:09:26.642Z,22.94
2022-07-25T22:22:04.337Z,23.25
2022-07-25T22:24:41.852Z,23.03
2022-07-25T22:27:12.926Z,23.01
2022-07-25T22:29:46.018Z,23.02
2022-07-25T22:32:19.070Z,23.06
2022-07-25T22:34:52.118Z,23.06
2022-07-25T22:37:25.026Z,23.03
2022-07-25T22:40:01.139Z,23.08
2022-07-25T22:42:34.677Z,23.12
2022-07-25T22:45:09.550Z,23.03
2022-07-25T23:18:21.970Z,22.42
2022-07-25T23:20:55.149Z,22.27
2022-07-25T23:26:17.770Z,22.28
2022-07-25T23:28:50.931Z,22.11
2022-07-25T23:31:24.284Z,22.06
2022-07-25T23:33:57.470Z,21.98
2022-07-25T23:36:36.886Z,21.89
2022-07-25T23:39:10.505Z,21.82
2022-07-25T23:41:44.651Z,21.81
2022-07-25T23:44:17.803Z,21.76
2022-07-25T23:46:51.860Z,21.69
2022-07-25T23:49:25.580Z,21.65
2022-07-25T23:51:58.915Z,21.66
2022-07-25T23:54:33.594Z,21.65
2022-07-25T23:57:07.344Z,21.63
2022-07-25T23:59:40.314Z,21.60
